createdAt,value
2018-09-14T00:02:15.346Z,15.53
2018-09-14T00:04:44.422Z,14.37
2018-09-14T00:07:13.502Z,14.93
2018-09-14T00:09:42.673Z,15.53
2018-09-14T00:12:11.790Z,14.53
2018-09-14T00:14:40.894Z,16.87
2018-09-14T00:17:10.026Z,17.40
2018-09-14T00:19:39.145Z,17.87
2018-09-14T00:22:08.297Z,16.63
2018-09-14T00:24:37.446Z,16.40
2018-09-14T00:27:06.574Z,16.77
2018-09-14T00:29:35.664Z,17.20
2018-09-14T00:32:04.983Z,16.23
2018-09-14T00:34:34.092Z,16.23
2018-09-14T00:37:03.221Z,15.73
2018-09-14T00:39:32.343Z,15.50
2018-09-14T00:42:01.581Z,16.10
2018-09-14T00:44:30.698Z,17.20
2018-09-14T00:46:59.824Z,15.97
2018-09-14T00:49:28.912Z,16.40
2018-09-14T00:51:58.016Z,16.30
2018-09-14T00:54:27.146Z,16.60
2018-09-14T00:56:56.234Z,16.77
2018-09-14T00:59:25.339Z,17.57
2018-09-14T01:01:54.722Z,16.87
2018-09-14T01:04:24.024Z,17.80
2018-09-14T01:06:53.108Z,19.53
2018-09-14T01:09:25.034Z,19.47
2018-09-14T01:11:55.206Z,18.60
2018-09-14T01:14:24.609Z,17.83
2018-09-14T01:16:54.145Z,19.20
2018-09-14T01:19:23.551Z,17.70
2018-09-14T01:21:52.921Z,18.87
2018-09-14T01:24:22.014Z,17.10
2018-09-14T01:26:51.225Z,16.43
2018-09-14T01:29:20.326Z,17.80
2018-09-14T01:31:49.399Z,16.87
2018-09-14T01:34:18.489Z,15.87
2018-09-14T01:36:47.590Z,16.97
2018-09-14T01:39:16.743Z,16.33
2018-09-14T01:41:45.847Z,15.87
2018-09-14T01:44:14.969Z,15.00
2018-09-14T01:46:44.096Z,14.30
2018-09-14T01:49:13.184Z,14.50
2018-09-14T01:51:42.263Z,14.57
2018-09-14T01:54:11.409Z,13.80
2018-09-14T01:56:40.684Z,14.50
2018-09-14T01:59:09.755Z,14.43
2018-09-14T02:01:38.888Z,13.67
2018-09-14T02:04:08.002Z,14.57
2018-09-14T02:06:37.356Z,14.57
2018-09-14T02:09:08.439Z,14.37
2018-09-14T02:11:37.637Z,13.93
2018-09-14T02:14:06.919Z,13.83
2018-09-14T02:16:36.123Z,13.40
2018-09-14T02:19:05.246Z,12.50
2018-09-14T02:21:34.385Z,12.87
2018-09-14T02:24:03.509Z,13.23
2018-09-14T02:26:32.724Z,13.17
2018-09-14T02:29:01.813Z,13.27
2018-09-14T02:31:30.922Z,12.53
2018-09-14T02:34:00.060Z,12.30
2018-09-14T02:36:29.151Z,13.47
2018-09-14T02:38:58.284Z,13.70
2018-09-14T02:41:27.428Z,12.83
2018-09-14T02:43:56.518Z,13.70
2018-09-14T02:46:25.620Z,13.30
2018-09-14T02:48:54.716Z,13.00
2018-09-14T02:51:24.531Z,12.87
2018-09-14T02:53:53.718Z,13.47
2018-09-14T02:56:22.853Z,13.23
2018-09-14T02:58:51.959Z,13.27
2018-09-14T03:01:21.066Z,12.37
2018-09-14T03:03:50.364Z,11.00
2018-09-14T03:06:19.676Z,10.63
2018-09-14T03:08:48.996Z,11.30
2018-09-14T03:11:18.108Z,12.20
2018-09-14T03:13:47.226Z,12.57
2018-09-14T03:16:16.342Z,13.30
2018-09-14T03:18:45.566Z,12.00
2018-09-14T03:21:14.898Z,13.00
2018-09-14T03:23:44.297Z,13.63
2018-09-14T03:26:13.871Z,13.57
2018-09-14T03:28:42.989Z,12.50
2018-09-14T03:31:12.093Z,14.27
2018-09-14T03:33:41.178Z,12.57
2018-09-14T03:36:10.286Z,13.40
2018-09-14T03:38:39.393Z,13.30
2018-09-14T03:41:08.517Z,13.53
2018-09-14T03:43:37.654Z,13.97
2018-09-14T03:46:06.808Z,14.07
2018-09-14T03:48:35.958Z,14.57
2018-09-14T03:51:05.070Z,14.00
2018-09-14T03:53:34.164Z,15.47
2018-09-14T03:56:03.336Z,14.60
2018-09-14T03:58:32.434Z,13.60
2018-09-14T04:01:01.906Z,15.33
2018-09-14T04:03:31.016Z,15.87
2018-09-14T04:06:00.146Z,15.40
2018-09-14T04:08:29.265Z,16.60
2018-09-14T04:10:58.550Z,14.73
2018-09-14T04:13:27.660Z,15.33
2018-09-14T04:15:56.754Z,16.00
2018-09-14T04:18:25.904Z,15.67
2018-09-14T04:20:55.492Z,16.13
2018-09-14T04:23:24.670Z,15.97
2018-09-14T04:25:53.750Z,15.30
2018-09-14T04:28:22.912Z,15.73
2018-09-14T04:30:52.021Z,15.77
2018-09-14T04:33:21.130Z,14.80
2018-09-14T04:35:50.224Z,14.90
2018-09-14T04:38:19.438Z,15.20
2018-09-14T04:40:48.420Z,13.73
2018-09-14T04:43:17.515Z,14.47
2018-09-14T04:45:46.669Z,15.70
2018-09-14T04:48:15.817Z,14.87
2018-09-14T04:50:44.900Z,14.43
2018-09-14T04:53:14.063Z,14.23
2018-09-14T04:55:43.156Z,14.37
2018-09-14T04:58:12.277Z,14.70
2018-09-14T05:00:41.364Z,14.67
2018-09-14T05:03:10.447Z,14.30
2018-09-14T05:05:39.586Z,14.00
2018-09-14T05:08:08.672Z,14.40
2018-09-14T05:10:37.751Z,13.70
2018-09-14T05:13:07.056Z,14.00
2018-09-14T05:15:36.193Z,14.73
2018-09-14T05:18:06.024Z,14.80
2018-09-14T05:20:35.215Z,16.03
2018-09-14T05:23:04.340Z,15.10
2018-09-14T05:25:33.447Z,14.60
2018-09-14T05:28:02.560Z,14.40
2018-09-14T05:30:31.676Z,14.87
2018-09-14T05:33:00.798Z,14.93
2018-09-14T05:35:29.904Z,14.93
2018-09-14T05:37:59.005Z,14.10
2018-09-14T05:40:28.125Z,14.27
2018-09-14T05:42:57.237Z,15.33
2018-09-14T05:45:26.352Z,14.47
2018-09-14T05:47:55.452Z,13.90
2018-09-14T05:50:24.521Z,15.10
2018-09-14T05:52:53.587Z,13.47
2018-09-14T05:55:22.687Z,14.87
2018-09-14T05:57:51.777Z,14.23
2018-09-14T06:00:20.916Z,16.50
2018-09-14T06:02:50.005Z,15.93
2018-09-14T06:05:19.143Z,16.93
2018-09-14T06:07:48.275Z,16.30
2018-09-14T06:10:17.363Z,15.60
2018-09-14T06:12:46.434Z,16.03
2018-09-14T06:15:15.863Z,16.43
2018-09-14T06:17:44.985Z,17.30
2018-09-14T06:20:14.145Z,18.37
2018-09-14T06:22:43.345Z,18.90
2018-09-14T06:25:12.909Z,19.83
2018-09-14T06:27:42.035Z,19.57
2018-09-14T06:30:11.136Z,17.63
2018-09-14T06:32:40.219Z,18.10
2018-09-14T06:35:09.329Z,17.10
2018-09-14T06:37:38.421Z,16.60
2018-09-14T06:40:07.536Z,15.17
2018-09-14T06:42:36.605Z,14.77
2018-09-14T06:45:05.796Z,15.10
2018-09-14T06:47:34.842Z,14.00
2018-09-14T06:50:03.996Z,15.00
2018-09-14T06:52:33.058Z,14.57
2018-09-14T06:55:02.163Z,13.90
2018-09-14T06:57:31.228Z,14.50
2018-09-14T07:00:00.309Z,13.60
2018-09-14T07:02:29.419Z,13.80
2018-09-14T07:04:58.708Z,13.00
2018-09-14T07:07:27.825Z,12.20
2018-09-14T07:09:56.931Z,12.40
2018-09-14T07:12:26.018Z,13.30
2018-09-14T07:14:55.154Z,13.00
2018-09-14T07:17:24.415Z,13.10
2018-09-14T07:19:53.541Z,13.13
2018-09-14T07:22:22.860Z,13.60
2018-09-14T07:24:52.599Z,13.43
2018-09-14T07:27:21.782Z,12.20
2018-09-14T07:29:50.911Z,12.07
2018-09-14T07:32:20.044Z,12.10
2018-09-14T07:34:49.195Z,11.33
2018-09-14T07:37:18.293Z,11.77
2018-09-14T07:39:47.408Z,13.67
2018-09-14T07:42:16.487Z,12.17
2018-09-14T07:44:45.581Z,10.80
2018-09-14T07:47:14.611Z,11.17
2018-09-14T07:49:43.665Z,11.90
2018-09-14T07:52:12.739Z,9.60
2018-09-14T07:54:41.851Z,9.10
2018-09-14T07:57:10.919Z,8.60
2018-09-14T07:59:40.062Z,8.30
2018-09-14T08:02:09.121Z,8.23
2018-09-14T08:04:38.167Z,7.30
2018-09-14T08:07:07.223Z,8.20
2018-09-14T08:09:36.307Z,8.67
2018-09-14T08:12:05.521Z,9.90
2018-09-14T08:14:34.583Z,10.07
2018-09-14T08:17:03.633Z,10.70
2018-09-14T08:19:33.139Z,9.03
2018-09-14T08:22:02.273Z,10.47
2018-09-14T08:24:31.333Z,9.90
2018-09-14T08:27:00.562Z,9.37
2018-09-14T08:29:29.582Z,8.20
2018-09-14T08:31:58.677Z,7.67
2018-09-14T08:34:27.773Z,8.07
2018-09-14T08:36:57.390Z,7.60
2018-09-14T08:39:26.498Z,7.00
2018-09-14T08:41:55.583Z,7.40
2018-09-14T08:44:24.669Z,7.73
2018-09-14T08:46:53.733Z,8.23
2018-09-14T08:49:22.825Z,7.23
2018-09-14T08:51:51.906Z,7.03
2018-09-14T08:54:20.985Z,7.60
2018-09-14T08:56:50.063Z,8.03
2018-09-14T08:59:19.159Z,7.63
2018-09-14T09:01:48.249Z,7.50
2018-09-14T09:04:17.378Z,8.20
2018-09-14T09:06:46.473Z,7.80
2018-09-14T09:09:15.558Z,8.00
2018-09-14T09:11:44.627Z,6.87
2018-09-14T09:14:14.529Z,7.03
2018-09-14T09:16:43.622Z,8.17
2018-09-14T09:19:12.751Z,7.50
2018-09-14T09:21:42.271Z,7.57
2018-09-14T09:24:11.323Z,7.03
2018-09-14T09:26:40.406Z,6.70
2018-09-14T09:29:09.500Z,6.97
2018-09-14T09:31:38.706Z,6.40
2018-09-14T09:34:07.853Z,6.03
2018-09-14T09:36:37.577Z,5.90
2018-09-14T09:39:09.215Z,5.67
2018-09-14T09:41:38.501Z,5.20
2018-09-14T09:44:07.763Z,4.77
2018-09-14T09:46:36.869Z,5.00
2018-09-14T09:49:06.323Z,4.93
2018-09-14T09:51:35.389Z,5.00
2018-09-14T09:54:04.501Z,4.77
2018-09-14T09:56:33.709Z,4.90
2018-09-14T09:59:02.718Z,5.20
2018-09-14T10:01:34.820Z,4.93
2018-09-14T10:04:09.262Z,5.13
2018-09-14T10:06:38.503Z,5.23
2018-09-14T10:09:08.721Z,4.60
2018-09-14T10:11:37.942Z,4.20
2018-09-14T10:14:07.105Z,4.27
2018-09-14T10:16:36.127Z,3.90
2018-09-14T10:19:05.275Z,4.33
2018-09-14T10:21:34.415Z,3.90
2018-09-14T10:24:03.983Z,4.20
2018-09-14T10:26:33.106Z,4.50
2018-09-14T10:29:02.262Z,4.13
2018-09-14T10:31:31.289Z,4.30
2018-09-14T10:34:00.417Z,4.20
2018-09-14T10:36:29.497Z,4.60
2018-09-14T10:38:58.582Z,4.50
2018-09-14T10:41:27.831Z,4.70
2018-09-14T10:43:56.978Z,4.13
2018-09-14T10:46:26.037Z,4.97
2018-09-14T10:48:55.256Z,4.87
2018-09-14T10:51:24.269Z,4.50
2018-09-14T10:53:53.359Z,4.77
2018-09-14T10:56:22.481Z,5.00
2018-09-14T10:58:51.579Z,4.40
2018-09-14T11:01:20.721Z,4.00
2018-09-14T11:03:50.064Z,4.77
2018-09-14T11:06:19.199Z,5.50
2018-09-14T11:08:48.381Z,5.37
2018-09-14T11:11:17.482Z,5.07
2018-09-14T11:13:47.476Z,4.90
2018-09-14T11:16:16.599Z,4.80
2018-09-14T11:18:45.796Z,4.90
2018-09-14T11:21:14.767Z,5.87
2018-09-14T11:23:43.918Z,5.90
2018-09-14T11:26:13.583Z,5.03
2018-09-14T11:28:42.657Z,5.17
2018-09-14T11:31:11.773Z,4.93
2018-09-14T11:33:40.857Z,4.87
2018-09-14T11:36:09.926Z,4.90
2018-09-14T11:38:39.343Z,4.47
2018-09-14T11:41:08.526Z,5.13
2018-09-14T11:43:37.621Z,4.67
2018-09-14T11:46:06.778Z,4.37
2018-09-14T11:48:36.409Z,4.87
2018-09-14T11:51:05.545Z,5.40
2018-09-14T11:53:34.995Z,4.67
2018-09-14T11:56:03.978Z,4.90
2018-09-14T11:58:33.048Z,5.27
2018-09-14T12:01:02.293Z,5.83
2018-09-14T12:03:31.404Z,4.63
2018-09-14T12:06:00.660Z,4.87
2018-09-14T12:08:29.757Z,6.40
2018-09-14T12:10:58.959Z,5.27
2018-09-14T12:13:28.022Z,4.50
2018-09-14T12:15:57.133Z,5.97
2018-09-14T12:18:26.206Z,5.03
2018-09-14T12:20:55.517Z,5.87
2018-09-14T12:23:25.311Z,5.10
2018-09-14T12:25:54.367Z,5.40
2018-09-14T12:28:23.955Z,5.00
2018-09-14T12:30:53.015Z,5.73
2018-09-14T12:33:22.190Z,5.30
2018-09-14T12:35:52.007Z,5.87
2018-09-14T12:38:21.115Z,4.90
2018-09-14T12:40:50.234Z,5.13
2018-09-14T12:43:19.383Z,5.43
2018-09-14T12:45:49.501Z,5.20
2018-09-14T12:48:18.565Z,4.83
2018-09-14T12:50:47.685Z,4.63
2018-09-14T12:53:16.917Z,4.90
2018-09-14T12:55:46.054Z,4.70
2018-09-14T12:58:15.172Z,5.20
2018-09-14T13:00:44.254Z,4.50
2018-09-14T13:03:13.433Z,4.70
2018-09-14T13:05:42.534Z,5.20
2018-09-14T13:08:11.596Z,6.00
2018-09-14T13:10:40.692Z,6.47
2018-09-14T13:13:09.829Z,5.53
2018-09-14T13:15:38.957Z,5.20
2018-09-14T13:18:08.060Z,5.30
2018-09-14T13:20:37.135Z,5.00
2018-09-14T13:23:06.238Z,5.27
2018-09-14T13:25:35.295Z,4.60
2018-09-14T13:28:04.416Z,4.80
2018-09-14T13:30:33.698Z,5.63
2018-09-14T13:33:02.779Z,5.30
2018-09-14T13:35:31.951Z,5.40
2018-09-14T13:38:01.131Z,5.30
2018-09-14T13:40:30.243Z,5.53
2018-09-14T13:42:59.384Z,5.37
2018-09-14T13:45:28.567Z,5.20
2018-09-14T13:47:57.663Z,5.47
2018-09-14T13:50:26.787Z,5.00
2018-09-14T13:52:55.961Z,6.00
2018-09-14T13:55:24.978Z,6.00
2018-09-14T13:57:54.189Z,6.07
2018-09-14T14:00:23.333Z,6.00
2018-09-14T14:02:52.497Z,4.93
2018-09-14T14:05:21.533Z,5.70
2018-09-14T14:07:50.583Z,5.80
2018-09-14T14:10:19.721Z,5.10
2018-09-14T14:12:48.749Z,5.80
2018-09-14T14:15:17.904Z,4.80
2018-09-14T14:17:47.059Z,5.37
2018-09-14T14:20:16.168Z,4.90
2018-09-14T14:22:45.272Z,4.73
2018-09-14T14:25:14.464Z,5.27
2018-09-14T14:27:43.579Z,5.53
2018-09-14T14:30:12.681Z,5.97
2018-09-14T14:32:42.390Z,5.50
2018-09-14T14:35:11.565Z,5.83
2018-09-14T14:37:40.644Z,5.40
2018-09-14T14:40:09.765Z,5.93
2018-09-14T14:42:38.879Z,5.10
2018-09-14T14:45:08.500Z,5.40
2018-09-14T14:47:37.575Z,4.70
2018-09-14T14:50:07.597Z,5.30
2018-09-14T14:52:36.695Z,5.60
2018-09-14T14:55:05.869Z,5.37
2018-09-14T14:57:34.950Z,4.80
2018-09-14T15:00:04.170Z,4.70
2018-09-14T15:02:33.282Z,5.07
2018-09-14T15:05:02.400Z,4.77
2018-09-14T15:07:31.492Z,5.30
2018-09-14T15:10:01.313Z,4.87
2018-09-14T15:12:30.387Z,5.40
2018-09-14T15:14:59.505Z,5.37
2018-09-14T15:17:28.595Z,4.63
2018-09-14T15:19:57.665Z,5.37
2018-09-14T15:22:26.765Z,5.83
2018-09-14T15:24:55.909Z,5.90
2018-09-14T15:27:25.015Z,5.97
2018-09-14T15:29:54.149Z,6.40
2018-09-14T15:32:23.314Z,6.23
2018-09-14T15:34:52.422Z,5.43
2018-09-14T15:37:21.536Z,6.23
2018-09-14T15:39:50.651Z,6.03
2018-09-14T15:42:19.753Z,7.10
2018-09-14T15:44:48.955Z,6.00
2018-09-14T15:47:18.239Z,5.93
2018-09-14T15:49:47.344Z,6.73
2018-09-14T15:52:16.470Z,6.47
2018-09-14T15:54:45.594Z,7.40
2018-09-14T15:57:14.714Z,8.40
2018-09-14T15:59:43.858Z,8.03
2018-09-14T16:02:12.952Z,8.33
2018-09-14T16:04:42.085Z,8.10
2018-09-14T16:07:11.196Z,8.40
2018-09-14T16:09:40.344Z,8.80
2018-09-14T16:12:09.473Z,9.00
2018-09-14T16:14:38.574Z,7.90
2018-09-14T16:17:07.736Z,8.33
2018-09-14T16:19:36.852Z,8.03
2018-09-14T16:22:05.971Z,7.90
2018-09-14T16:24:35.062Z,7.93
2018-09-14T16:27:04.882Z,7.80
2018-09-14T16:29:34.015Z,8.03
2018-09-14T16:32:03.108Z,8.80
2018-09-14T16:34:32.240Z,8.23
2018-09-14T16:37:01.435Z,7.90
2018-09-14T16:39:30.459Z,7.50
2018-09-14T16:41:59.544Z,8.03
2018-09-14T16:44:28.658Z,7.33
2018-09-14T16:46:57.704Z,7.37
2018-09-14T16:49:26.914Z,6.80
2018-09-14T16:51:56.446Z,6.87
2018-09-14T16:54:26.126Z,6.87
2018-09-14T16:56:55.250Z,6.40
2018-09-14T16:59:24.333Z,6.40
2018-09-14T17:01:53.422Z,7.33
2018-09-14T17:04:22.518Z,6.53
2018-09-14T17:06:51.606Z,6.53
2018-09-14T17:09:20.754Z,6.50
2018-09-14T17:11:49.962Z,7.40
2018-09-14T17:14:19.116Z,6.20
2018-09-14T17:16:48.206Z,6.67
2018-09-14T17:19:17.316Z,6.90
2018-09-14T17:21:46.418Z,7.00
2018-09-14T17:24:15.512Z,6.73
2018-09-14T17:26:44.667Z,7.33
2018-09-14T17:29:13.758Z,7.57
2018-09-14T17:31:42.857Z,7.23
2018-09-14T17:34:12.030Z,6.90
2018-09-14T17:36:41.133Z,8.47
2018-09-14T17:39:11.248Z,7.20
2018-09-14T17:41:40.390Z,6.77
2018-09-14T17:44:09.553Z,7.47
2018-09-14T17:46:38.654Z,7.90
2018-09-14T17:49:07.802Z,7.57
2018-09-14T17:51:37.144Z,8.07
2018-09-14T17:54:06.436Z,7.40
2018-09-14T17:56:36.236Z,7.33
2018-09-14T17:59:05.566Z,7.40
2018-09-14T18:01:34.811Z,7.13
2018-09-14T18:04:04.014Z,8.27
2018-09-14T18:06:33.124Z,7.40
2018-09-14T18:09:02.240Z,7.80
2018-09-14T18:11:31.402Z,7.30
2018-09-14T18:14:00.510Z,7.07
2018-09-14T18:16:29.759Z,7.57
2018-09-14T18:18:58.856Z,7.67
2018-09-14T18:21:27.983Z,8.20
2018-09-14T18:23:57.621Z,8.00
2018-09-14T18:26:26.758Z,10.83
2018-09-14T18:28:55.946Z,9.77
2018-09-14T18:31:25.116Z,10.03
2018-09-14T18:33:54.346Z,10.33
2018-09-14T18:36:23.549Z,8.67
2018-09-14T18:38:52.662Z,7.80
2018-09-14T18:41:21.771Z,7.93
2018-09-14T18:43:50.984Z,9.50
2018-09-14T18:46:20.148Z,15.17
2018-09-14T18:48:49.325Z,9.30
2018-09-14T18:51:18.529Z,8.70
2018-09-14T18:53:47.788Z,9.70
2018-09-14T18:56:16.926Z,9.30
2018-09-14T18:58:46.058Z,9.93
2018-09-14T19:01:15.182Z,8.70
2018-09-14T19:03:44.390Z,11.30
2018-09-14T19:06:13.620Z,8.67
2018-09-14T19:08:42.782Z,7.57
2018-09-14T19:11:11.894Z,8.03
2018-09-14T19:13:41.048Z,8.30
2018-09-14T19:16:10.186Z,8.97
2018-09-14T19:18:39.328Z,8.30
2018-09-14T19:21:08.442Z,8.93
2018-09-14T19:23:37.592Z,9.30
2018-09-14T19:26:06.796Z,8.60
2018-09-14T19:28:35.926Z,13.20
2018-09-14T19:31:05.833Z,8.80
2018-09-14T19:33:34.987Z,9.13
2018-09-14T19:36:04.372Z,7.67
2018-09-14T19:38:33.556Z,12.07
2018-09-14T19:41:02.650Z,9.77
2018-09-14T19:43:31.752Z,8.60
2018-09-14T19:46:00.900Z,9.17
2018-09-14T19:48:30.021Z,8.80
2018-09-14T19:50:59.107Z,8.13
2018-09-14T19:53:28.214Z,8.80
2018-09-14T19:55:57.639Z,10.00
2018-09-14T19:58:26.740Z,8.90
2018-09-14T20:00:56.238Z,8.93
2018-09-14T20:03:25.304Z,8.57
2018-09-14T20:05:54.376Z,10.77
2018-09-14T20:08:23.443Z,9.80
2018-09-14T20:10:52.574Z,8.40
2018-09-14T20:13:21.690Z,9.77
2018-09-14T20:15:51.010Z,11.30
2018-09-14T20:18:20.171Z,8.37
2018-09-14T20:20:49.248Z,8.10
2018-09-14T20:23:18.795Z,10.30
2018-09-14T20:25:48.341Z,10.20
2018-09-14T20:28:17.382Z,9.30
2018-09-14T20:30:46.504Z,9.93
2018-09-14T20:33:15.590Z,10.27
2018-09-14T20:35:44.796Z,9.90
2018-09-14T20:38:13.877Z,10.53
2018-09-14T20:40:42.994Z,10.97
2018-09-14T20:43:17.015Z,10.07
2018-09-14T20:45:48.900Z,10.60
2018-09-14T20:48:17.996Z,10.30
2018-09-14T20:50:47.144Z,10.17
2018-09-14T20:53:16.243Z,10.60
2018-09-14T20:55:45.372Z,11.10
2018-09-14T20:58:14.946Z,12.23
2018-09-14T21:00:44.075Z,10.60
2018-09-14T21:03:13.153Z,9.97
2018-09-14T21:05:42.290Z,11.10
2018-09-14T21:08:11.417Z,13.63
2018-09-14T21:10:40.522Z,12.80
2018-09-14T21:13:09.666Z,14.93
2018-09-14T21:15:38.760Z,13.10
2018-09-14T21:18:07.855Z,12.40
2018-09-14T21:20:36.976Z,13.50
2018-09-14T21:23:06.084Z,13.87
2018-09-14T21:25:35.211Z,13.40
2018-09-14T21:28:04.340Z,14.47
2018-09-14T21:30:33.441Z,15.07
2018-09-14T21:33:02.560Z,14.60
2018-09-14T21:35:31.638Z,14.17
2018-09-14T21:38:00.764Z,14.80
2018-09-14T21:40:29.915Z,14.97
2018-09-14T21:42:58.991Z,15.60
2018-09-14T21:45:28.156Z,14.83
2018-09-14T21:47:57.262Z,14.27
2018-09-14T21:50:26.408Z,16.17
2018-09-14T21:52:55.479Z,18.20
2018-09-14T21:55:24.584Z,16.30
2018-09-14T21:57:53.686Z,17.37
2018-09-14T22:00:28.206Z,17.83
2018-09-14T22:02:57.457Z,22.03
2018-09-14T22:05:26.594Z,21.50
2018-09-14T22:07:55.704Z,22.77
2018-09-14T22:10:24.888Z,22.30
2018-09-14T22:12:53.980Z,23.00
2018-09-14T22:15:23.090Z,23.00
2018-09-14T22:17:52.214Z,23.63
2018-09-14T22:20:21.296Z,23.30
2018-09-14T22:22:50.384Z,22.50
2018-09-14T22:25:19.513Z,22.47
2018-09-14T22:27:48.634Z,22.00
2018-09-14T22:30:17.734Z,21.00
2018-09-14T22:32:46.851Z,20.50
2018-09-14T22:35:16.054Z,19.23
2018-09-14T22:37:45.123Z,20.63
2018-09-14T22:40:14.250Z,23.50
2018-09-14T22:42:43.357Z,22.27
2018-09-14T22:45:12.475Z,25.30
2018-09-14T22:47:41.584Z,25.13
2018-09-14T22:50:10.720Z,23.63
2018-09-14T22:52:39.863Z,24.47
2018-09-14T22:55:08.985Z,24.73
2018-09-14T22:57:38.103Z,23.37
2018-09-14T23:00:07.219Z,23.97
2018-09-14T23:02:36.949Z,22.37
2018-09-14T23:05:06.067Z,24.90
2018-09-14T23:07:35.198Z,25.30
2018-09-14T23:10:04.381Z,25.47
2018-09-14T23:12:33.486Z,23.43
2018-09-14T23:15:02.605Z,22.63
2018-09-14T23:17:31.697Z,21.07
2018-09-14T23:20:00.785Z,22.30
2018-09-14T23:22:29.880Z,20.87
2018-09-14T23:24:59.051Z,21.20
2018-09-14T23:27:28.155Z,22.00
2018-09-14T23:29:57.252Z,21.50
2018-09-14T23:32:26.368Z,21.30
2018-09-14T23:34:55.472Z,18.93
2018-09-14T23:37:24.582Z,21.07
2018-09-14T23:39:53.668Z,21.53
2018-09-14T23:42:22.744Z,19.47
2018-09-14T23:44:51.866Z,20.13
2018-09-14T23:47:20.973Z,19.87
2018-09-14T23:49:50.144Z,20.13
2018-09-14T23:52:19.248Z,19.03
2018-09-14T23:54:48.330Z,18.07
2018-09-14T23:57:17.466Z,17.13
2018-09-14T23:59:46.570Z,20.00
